createdAt,value
2023-04-12T00:02:01.939Z,6.60
2023-04-12T00:04:30.491Z,6.90
2023-04-12T00:07:01.183Z,7.80
2023-04-12T00:09:30.605Z,6.10
2023-04-12T00:11:59.920Z,8.90
2023-04-12T00:14:28.390Z,8.20
2023-04-12T00:16:56.666Z,7.70
2023-04-12T00:19:27.922Z,7.60
2023-04-12T00:21:56.910Z,10.00
2023-04-12T00:24:26.311Z,9.10
2023-04-12T00:26:55.208Z,8.00
2023-04-12T00:29:23.397Z,7.20
2023-04-12T00:31:52.070Z,8.40
2023-04-12T00:34:20.753Z,8.60
2023-04-12T00:36:49.029Z,9.20
2023-04-12T00:39:17.213Z,7.80
2023-04-12T00:41:45.788Z,7.60
2023-04-12T00:44:14.676Z,9.10
2023-04-12T00:46:43.497Z,7.50
2023-04-12T00:49:12.919Z,6.80
2023-04-12T00:51:42.095Z,7.40
2023-04-12T00:54:15.155Z,7.50
2023-04-12T00:56:45.006Z,8.60
2023-04-12T00:59:13.766Z,9.70
2023-04-12T01:01:42.391Z,10.00
2023-04-12T01:04:14.188Z,9.60
2023-04-12T01:07:10.330Z,10.70
2023-04-12T01:10:08.609Z,10.30
2023-04-12T01:12:50.402Z,9.90
2023-04-12T01:15:19.505Z,10.80
2023-04-12T01:18:15.012Z,11.30
2023-04-12T01:21:08.164Z,11.00
2023-04-12T01:23:40.240Z,11.90
2023-04-12T01:26:11.669Z,12.70
2023-04-12T01:28:43.972Z,14.10
2023-04-12T01:31:14.308Z,12.70
2023-04-12T01:33:45.512Z,11.70
2023-04-12T01:36:17.168Z,12.70
2023-04-12T01:38:46.884Z,12.00
2023-04-12T01:41:16.094Z,12.40
2023-04-12T01:43:47.551Z,13.00
2023-04-12T01:46:19.355Z,11.50
2023-04-12T01:48:53.087Z,12.10
2023-04-12T01:51:33.687Z,12.20
2023-04-12T01:54:22.656Z,10.10
2023-04-12T01:56:57.963Z,11.30
2023-04-12T01:59:34.924Z,11.80
2023-04-12T02:02:05.020Z,12.40
2023-04-12T02:04:35.958Z,12.50
2023-04-12T02:07:04.818Z,11.20
2023-04-12T02:09:39.781Z,11.10
2023-04-12T02:12:09.209Z,10.40
2023-04-12T02:14:37.748Z,10.60
2023-04-12T02:17:06.111Z,10.70
2023-04-12T02:19:34.488Z,11.50
2023-04-12T02:22:04.631Z,13.00
2023-04-12T02:24:34.004Z,12.90
2023-04-12T02:27:02.482Z,13.10
2023-04-12T02:29:31.490Z,13.60
2023-04-12T02:31:59.865Z,14.20
2023-04-12T02:34:34.303Z,15.00
2023-04-12T02:37:13.795Z,14.70
2023-04-12T02:39:42.222Z,13.60
2023-04-12T02:42:11.100Z,15.30
2023-04-12T02:44:40.668Z,16.40
2023-04-12T02:47:15.022Z,16.10
2023-04-12T02:49:46.518Z,14.20
2023-04-12T02:52:17.009Z,17.60
2023-04-12T02:55:06.174Z,15.90
2023-04-12T02:57:34.856Z,18.00
2023-04-12T03:00:12.486Z,15.70
2023-04-12T03:02:45.146Z,16.00
2023-04-12T03:05:19.968Z,14.50
2023-04-12T03:07:49.285Z,15.60
2023-04-12T03:10:20.610Z,15.60
2023-04-12T03:12:54.242Z,12.60
2023-04-12T03:15:24.838Z,11.90
2023-04-12T03:17:54.186Z,12.30
2023-04-12T03:20:25.389Z,12.90
2023-04-12T03:23:01.791Z,14.20
2023-04-12T03:25:31.466Z,13.40
2023-04-12T03:28:07.459Z,15.70
2023-04-12T03:30:47.290Z,15.40
2023-04-12T03:33:18.108Z,15.00
2023-04-12T03:35:47.048Z,16.10
2023-04-12T03:38:16.000Z,17.10
2023-04-12T03:40:44.580Z,24.70
2023-04-12T03:43:13.163Z,29.50
2023-04-12T03:45:41.434Z,87.60
2023-04-12T03:48:12.095Z,95.90
2023-04-12T03:50:48.642Z,37.70
2023-04-12T03:53:22.137Z,30.10
2023-04-12T03:55:52.052Z,82.80
2023-04-12T03:58:21.048Z,84.10
2023-04-12T04:00:49.858Z,56.40
2023-04-12T04:03:18.907Z,71.60
2023-04-12T04:05:59.922Z,25.60
2023-04-12T04:08:29.939Z,17.10
2023-04-12T04:10:59.469Z,19.40
2023-04-12T04:13:32.420Z,26.20
2023-04-12T04:16:06.546Z,17.90
2023-04-12T04:18:36.204Z,17.20
2023-04-12T04:21:07.663Z,17.90
2023-04-12T04:23:40.170Z,17.60
2023-04-12T04:26:12.611Z,21.30
2023-04-12T04:28:50.516Z,25.80
2023-04-12T04:31:22.501Z,35.10
2023-04-12T04:33:51.608Z,26.60
2023-04-12T04:36:22.953Z,19.30
2023-04-12T04:38:54.918Z,22.20
2023-04-12T04:41:41.563Z,23.80
2023-04-12T04:44:25.986Z,27.90
2023-04-12T04:46:58.151Z,16.00
2023-04-12T04:49:26.432Z,21.20
2023-04-12T04:51:56.545Z,16.60
2023-04-12T04:54:28.920Z,13.80
2023-04-12T04:56:57.510Z,16.70
2023-04-12T04:59:26.394Z,15.80
2023-04-12T05:01:57.645Z,14.20
2023-04-12T05:04:26.150Z,16.20
2023-04-12T05:06:55.120Z,13.40
2023-04-12T05:09:25.747Z,13.50
2023-04-12T05:11:57.408Z,14.10
2023-04-12T05:14:41.340Z,14.10
2023-04-12T05:17:13.612Z,15.70
2023-04-12T05:19:47.460Z,16.20
2023-04-12T05:22:20.460Z,21.20
2023-04-12T05:24:49.825Z,17.90
2023-04-12T05:27:19.317Z,18.20
2023-04-12T05:29:48.546Z,14.30
2023-04-12T05:32:18.666Z,13.00
2023-04-12T05:34:48.241Z,14.60
2023-04-12T05:37:17.029Z,15.50
2023-04-12T05:39:45.207Z,14.80
2023-04-12T05:42:14.426Z,13.00
2023-04-12T05:44:46.107Z,16.40
2023-04-12T05:47:15.775Z,17.60
2023-04-12T05:49:44.265Z,16.70
2023-04-12T05:52:13.354Z,14.40
2023-04-12T05:54:42.139Z,12.50
2023-04-12T05:57:14.104Z,12.20
2023-04-12T05:59:43.819Z,18.80
2023-04-12T06:02:12.603Z,19.40
2023-04-12T06:04:50.325Z,16.40
2023-04-12T06:07:21.481Z,17.80
2023-04-12T06:09:50.159Z,15.80
2023-04-12T06:12:19.538Z,17.40
2023-04-12T06:14:48.228Z,15.10
2023-04-12T06:17:16.504Z,20.70
2023-04-12T06:19:45.294Z,17.00
2023-04-12T06:22:13.771Z,15.20
2023-04-12T06:24:42.564Z,15.70
2023-04-12T06:27:12.285Z,12.60
2023-04-12T06:29:41.216Z,12.60
2023-04-12T06:32:09.846Z,10.90
2023-04-12T06:34:38.020Z,12.80
2023-04-12T06:37:13.051Z,13.60
2023-04-12T06:39:41.316Z,13.20
2023-04-12T06:42:09.503Z,12.20
2023-04-12T06:44:41.064Z,10.60
2023-04-12T06:47:09.716Z,12.90
2023-04-12T06:49:39.145Z,17.00
2023-04-12T06:52:07.518Z,15.10
2023-04-12T06:54:39.868Z,18.20
2023-04-12T06:57:11.752Z,16.20
2023-04-12T06:59:40.280Z,17.60
2023-04-12T07:02:08.937Z,13.30
2023-04-12T07:04:37.614Z,14.30
2023-04-12T07:07:06.709Z,14.50
2023-04-12T07:09:34.876Z,13.40
2023-04-12T07:12:03.302Z,12.70
2023-04-12T07:14:31.762Z,15.60
2023-04-12T07:17:00.015Z,14.90
2023-04-12T07:19:29.935Z,15.60
2023-04-12T07:21:58.520Z,15.40
2023-04-12T07:24:26.795Z,16.40
2023-04-12T07:26:55.480Z,15.10
2023-04-12T07:29:23.656Z,16.60
2023-04-12T07:31:52.136Z,16.20
2023-04-12T07:34:20.349Z,17.20
2023-04-12T07:36:48.587Z,18.30
2023-04-12T07:39:18.069Z,19.00
2023-04-12T07:41:46.796Z,20.10
2023-04-12T07:44:14.954Z,21.60
2023-04-12T07:46:43.338Z,23.80
2023-04-12T07:49:11.916Z,21.40
2023-04-12T07:51:40.711Z,19.80
2023-04-12T07:54:08.878Z,20.10
2023-04-12T07:56:37.156Z,19.50
2023-04-12T07:59:06.253Z,17.40
2023-04-12T08:01:34.739Z,17.00
2023-04-12T08:04:03.345Z,17.40
2023-04-12T08:06:34.488Z,19.60
2023-04-12T08:09:02.848Z,20.80
2023-04-12T08:11:31.225Z,17.60
2023-04-12T08:13:59.694Z,20.60
2023-04-12T08:16:28.746Z,25.70
2023-04-12T08:18:58.407Z,59.40
2023-04-12T08:21:27.808Z,24.50
2023-04-12T08:23:57.141Z,20.70
2023-04-12T08:26:26.835Z,17.80
2023-04-12T08:28:55.096Z,16.70
2023-04-12T08:31:23.924Z,15.70
2023-04-12T08:33:52.168Z,17.00
2023-04-12T08:36:21.050Z,17.20
2023-04-12T08:38:52.711Z,19.40
2023-04-12T08:41:21.703Z,18.90
2023-04-12T08:43:51.496Z,18.30
2023-04-12T08:46:20.081Z,20.40
2023-04-12T08:48:50.769Z,16.90
2023-04-12T08:51:24.213Z,64.10
2023-04-12T08:53:54.361Z,17.40
2023-04-12T08:56:23.694Z,16.10
2023-04-12T08:58:53.156Z,14.90
2023-04-12T09:01:22.030Z,18.00
2023-04-12T09:03:50.788Z,16.20
2023-04-12T09:06:19.628Z,15.60
2023-04-12T09:08:55.786Z,19.60
2023-04-12T09:11:28.900Z,16.20
2023-04-12T09:13:58.944Z,20.20
2023-04-12T09:16:35.066Z,20.60
2023-04-12T09:19:03.846Z,17.30
2023-04-12T09:21:37.031Z,17.20
2023-04-12T09:24:11.801Z,15.90
2023-04-12T09:26:42.483Z,14.40
2023-04-12T09:29:27.400Z,15.80
2023-04-12T09:32:06.195Z,14.40
2023-04-12T09:34:36.818Z,13.60
2023-04-12T09:37:16.549Z,13.90
2023-04-12T09:39:44.742Z,14.10
2023-04-12T09:42:29.748Z,17.40
2023-04-12T09:45:03.112Z,14.60
2023-04-12T09:47:39.710Z,14.20
2023-04-12T09:50:10.000Z,14.90
2023-04-12T09:52:39.360Z,21.10
2023-04-12T09:55:11.569Z,16.70
2023-04-12T09:57:44.877Z,13.50
2023-04-12T10:00:18.096Z,12.70
2023-04-12T10:02:51.477Z,14.10
2023-04-12T10:05:23.684Z,13.40
2023-04-12T10:07:53.241Z,13.10
2023-04-12T10:10:21.917Z,12.60
2023-04-12T10:12:50.967Z,12.60
2023-04-12T10:15:21.374Z,10.70
2023-04-12T10:17:57.690Z,11.90
2023-04-12T10:20:28.520Z,10.40
2023-04-12T10:23:01.624Z,10.90
2023-04-12T10:25:32.046Z,10.30
2023-04-12T10:28:23.176Z,9.70
2023-04-12T10:30:54.864Z,10.70
2023-04-12T10:33:27.881Z,9.80
2023-04-12T10:36:08.831Z,11.80
2023-04-12T10:39:10.332Z,11.50
2023-04-12T10:41:38.406Z,9.50
2023-04-12T10:44:28.922Z,10.40
2023-04-12T10:46:57.164Z,11.00
2023-04-12T10:49:27.561Z,11.10
2023-04-12T10:52:16.192Z,10.20
2023-04-12T10:54:44.596Z,10.00
2023-04-12T10:57:47.366Z,9.60
2023-04-12T11:00:16.653Z,8.80
2023-04-12T11:03:09.862Z,9.20
2023-04-12T11:06:09.128Z,10.10
2023-04-12T11:09:21.941Z,9.10
2023-04-12T11:11:50.663Z,9.80
2023-04-12T11:14:27.593Z,8.30
2023-04-12T11:17:17.039Z,8.90
2023-04-12T11:19:51.036Z,10.30
2023-04-12T11:22:21.688Z,10.00
2023-04-12T11:24:52.450Z,10.20
2023-04-12T11:27:23.490Z,8.90
2023-04-12T11:29:57.949Z,10.80
2023-04-12T11:32:28.916Z,10.30
2023-04-12T11:34:58.368Z,9.70
2023-04-12T11:37:31.444Z,8.70
2023-04-12T11:40:00.874Z,9.80
2023-04-12T11:42:29.680Z,8.60
2023-04-12T11:45:02.409Z,8.70
2023-04-12T11:47:34.680Z,10.70
2023-04-12T11:50:03.165Z,12.20
2023-04-12T11:52:33.692Z,12.70
2023-04-12T11:55:11.339Z,10.20
2023-04-12T11:57:39.788Z,9.30
2023-04-12T12:00:08.664Z,9.30
2023-04-12T12:02:55.914Z,8.20
2023-04-12T12:05:37.450Z,9.70
2023-04-12T12:08:08.004Z,8.30
2023-04-12T12:10:49.226Z,9.10
2023-04-12T12:13:24.126Z,8.80
2023-04-12T12:15:53.378Z,8.10
2023-04-12T12:18:27.560Z,8.40
2023-04-12T12:20:56.011Z,7.70
2023-04-12T12:23:33.800Z,8.40
2023-04-12T12:26:18.441Z,9.50
2023-04-12T12:28:55.781Z,10.10
2023-04-12T12:31:28.118Z,8.10
2023-04-12T12:34:04.294Z,8.60
2023-04-12T12:36:38.822Z,8.80
2023-04-12T12:39:12.920Z,22.60
2023-04-12T12:41:41.691Z,13.20
2023-04-12T12:44:12.451Z,9.10
2023-04-12T12:46:53.211Z,8.00
2023-04-12T12:49:22.258Z,8.70
2023-04-12T12:51:50.872Z,8.60
2023-04-12T12:54:36.075Z,8.00
2023-04-12T12:59:35.817Z,8.30
2023-04-12T13:02:04.228Z,8.40
2023-04-12T13:04:33.050Z,10.20
2023-04-12T13:07:01.260Z,8.80
2023-04-12T13:09:31.668Z,9.20
2023-04-12T13:11:59.845Z,11.00
2023-04-12T13:14:27.918Z,8.00
2023-04-12T13:16:56.900Z,8.20
2023-04-12T13:19:25.418Z,12.70
2023-04-12T13:21:53.666Z,8.60
2023-04-12T13:24:24.304Z,9.00
2023-04-12T13:26:52.886Z,12.90
2023-04-12T13:29:21.262Z,9.00
2023-04-12T13:31:49.683Z,10.60
2023-04-12T13:34:18.434Z,7.70
2023-04-12T13:36:46.708Z,8.80
2023-04-12T13:39:15.192Z,11.90
2023-04-12T13:41:43.648Z,8.10
2023-04-12T13:44:11.745Z,8.20
2023-04-12T13:46:40.024Z,12.00
2023-04-12T13:49:08.528Z,8.00
2023-04-12T13:51:37.211Z,9.60
2023-04-12T13:54:05.677Z,7.30
2023-04-12T13:56:34.052Z,7.10
2023-04-12T13:59:03.882Z,11.30
2023-04-12T14:01:32.058Z,7.20
2023-04-12T14:04:00.221Z,6.50
2023-04-12T14:06:29.620Z,15.70
2023-04-12T14:08:58.331Z,7.20
2023-04-12T14:11:26.989Z,6.90
2023-04-12T14:13:55.469Z,6.00
2023-04-12T14:16:23.847Z,5.70
2023-04-12T14:18:52.636Z,5.30
2023-04-12T14:21:22.962Z,6.70
2023-04-12T14:23:51.653Z,13.90
2023-04-12T14:26:19.821Z,18.60
2023-04-12T14:28:50.219Z,6.10
2023-04-12T14:31:18.933Z,7.60
2023-04-12T14:33:47.626Z,10.20
2023-04-12T14:36:16.103Z,6.90
2023-04-12T14:38:45.297Z,19.30
2023-04-12T14:41:14.195Z,17.00
2023-04-12T14:43:43.094Z,7.10
2023-04-12T14:46:12.058Z,7.70
2023-04-12T14:48:41.685Z,7.00
2023-04-12T14:51:09.974Z,20.10
2023-04-12T14:53:38.234Z,9.20
2023-04-12T14:56:17.151Z,8.40
2023-04-12T14:58:45.367Z,7.70
2023-04-12T15:01:14.331Z,7.10
2023-04-12T15:03:44.349Z,8.50
2023-04-12T15:06:13.750Z,8.90
2023-04-12T15:08:42.130Z,9.00
2023-04-12T15:11:11.899Z,7.80
2023-04-12T15:13:41.771Z,7.70
2023-04-12T15:16:12.527Z,12.30
2023-04-12T15:18:41.979Z,9.80
2023-04-12T15:21:10.958Z,9.30
2023-04-12T15:23:41.913Z,7.40
2023-04-12T15:26:10.735Z,7.60
2023-04-12T15:28:39.104Z,7.70
2023-04-12T15:31:08.747Z,10.20
2023-04-12T15:33:38.026Z,9.90
2023-04-12T15:36:07.118Z,9.20
2023-04-12T15:38:42.612Z,9.80
2023-04-12T15:41:11.436Z,10.00
2023-04-12T15:43:42.132Z,12.60
2023-04-12T15:46:13.924Z,9.60
2023-04-12T15:48:42.313Z,8.80
2023-04-12T15:51:10.697Z,9.30
2023-04-12T15:53:40.811Z,9.20
2023-04-12T15:56:10.010Z,9.90
2023-04-12T15:58:38.695Z,10.40
2023-04-12T16:01:07.388Z,10.00
2023-04-12T16:03:37.187Z,10.00
2023-04-12T16:06:06.289Z,9.40
2023-04-12T16:08:34.367Z,9.30
2023-04-12T16:11:03.472Z,10.00
2023-04-12T16:13:31.950Z,8.50
2023-04-12T16:16:00.761Z,9.60
2023-04-12T16:18:31.274Z,9.60
2023-04-12T16:21:00.232Z,9.30
2023-04-12T16:23:31.399Z,10.50
2023-04-12T16:26:00.331Z,10.60
2023-04-12T16:28:29.898Z,10.40
2023-04-12T16:30:59.170Z,10.60
2023-04-12T16:33:28.289Z,10.20
2023-04-12T16:35:57.080Z,12.20
2023-04-12T16:38:27.816Z,11.60
2023-04-12T16:40:57.220Z,10.40
2023-04-12T16:43:28.106Z,11.80
2023-04-12T16:45:57.048Z,11.90
2023-04-12T16:48:27.474Z,13.10
2023-04-12T16:50:55.960Z,13.80
2023-04-12T16:53:24.886Z,11.80
2023-04-12T16:55:56.729Z,10.90
2023-04-12T16:58:26.651Z,10.00
2023-04-12T17:00:56.232Z,10.30
2023-04-12T17:03:27.885Z,11.00
2023-04-12T17:05:56.475Z,24.70
2023-04-12T17:08:24.959Z,32.20
2023-04-12T17:10:54.569Z,15.30
2023-04-12T17:13:22.955Z,13.60
2023-04-12T17:15:51.305Z,15.10
2023-04-12T17:18:20.962Z,12.40
2023-04-12T17:20:49.095Z,11.50
2023-04-12T17:23:19.118Z,17.40
2023-04-12T17:25:47.598Z,14.40
2023-04-12T17:28:17.220Z,14.00
2023-04-12T17:30:46.771Z,13.70
2023-04-12T17:33:18.257Z,15.30
2023-04-12T17:35:46.744Z,14.50
2023-04-12T17:38:14.997Z,15.40
2023-04-12T17:40:43.400Z,19.30
2023-04-12T17:43:11.779Z,18.40
2023-04-12T17:45:40.201Z,22.00
2023-04-12T17:48:10.995Z,13.40
2023-04-12T17:50:39.269Z,13.40
2023-04-12T17:53:08.161Z,15.70
2023-04-12T17:55:36.553Z,13.00
2023-04-12T17:58:04.925Z,13.60
2023-04-12T18:00:35.147Z,14.90
2023-04-12T18:03:04.154Z,15.50
2023-04-12T18:05:35.593Z,15.50
2023-04-12T18:08:03.970Z,17.90
2023-04-12T18:10:32.353Z,20.00
2023-04-12T18:13:01.071Z,17.50
2023-04-12T18:15:32.923Z,18.10
2023-04-12T18:18:03.902Z,23.80
2023-04-12T18:20:32.338Z,29.00
2023-04-12T18:23:00.804Z,30.10
2023-04-12T18:25:31.022Z,29.80
2023-04-12T18:27:59.836Z,27.00
2023-04-12T18:30:30.562Z,24.30
2023-04-12T18:33:00.953Z,27.40
2023-04-12T18:35:31.705Z,25.80
2023-04-12T18:38:00.187Z,26.30
2023-04-12T18:40:31.133Z,26.20
2023-04-12T18:42:59.913Z,24.70
2023-04-12T18:45:31.365Z,25.20
2023-04-12T18:48:00.716Z,22.30
2023-04-12T18:50:29.466Z,21.60
2023-04-12T18:52:58.141Z,25.70
2023-04-12T18:55:26.426Z,27.90
2023-04-12T18:57:54.798Z,27.50
2023-04-12T19:00:23.436Z,25.60
2023-04-12T19:02:51.892Z,24.20
2023-04-12T19:05:21.849Z,25.90
2023-04-12T19:07:51.182Z,22.90
2023-04-12T19:10:24.397Z,24.70
2023-04-12T19:12:52.869Z,25.30
2023-04-12T19:15:21.952Z,27.90
2023-04-12T19:17:51.189Z,23.90
2023-04-12T19:20:19.628Z,24.50
2023-04-12T19:22:47.912Z,24.40
2023-04-12T19:25:19.510Z,24.70
2023-04-12T19:27:48.302Z,31.30
2023-04-12T19:30:17.341Z,35.30
2023-04-12T19:32:45.758Z,28.80
2023-04-12T19:35:14.610Z,30.60
2023-04-12T19:37:42.890Z,24.90
2023-04-12T19:40:12.764Z,25.60
2023-04-12T19:42:42.258Z,25.40
2023-04-12T19:45:10.756Z,23.60
2023-04-12T19:47:45.132Z,26.70
2023-04-12T19:50:17.934Z,23.40
2023-04-12T19:52:48.116Z,26.60
2023-04-12T19:55:17.018Z,25.10
2023-04-12T19:57:46.307Z,27.00
2023-04-12T20:00:23.348Z,25.90
2023-04-12T20:02:54.352Z,30.20
2023-04-12T20:05:25.386Z,25.20
2023-04-12T20:07:56.211Z,26.90
2023-04-12T20:10:24.910Z,28.50
2023-04-12T20:12:53.509Z,28.50
2023-04-12T20:15:22.484Z,33.20
2023-04-12T20:17:52.217Z,32.20
2023-04-12T20:20:20.989Z,36.60
2023-04-12T20:22:52.941Z,36.70
2023-04-12T20:25:21.438Z,37.50
2023-04-12T20:27:52.516Z,42.40
2023-04-12T20:30:21.452Z,42.30
2023-04-12T20:32:55.027Z,40.60
2023-04-12T20:35:23.572Z,37.80
2023-04-12T20:37:52.222Z,36.20
2023-04-12T20:40:23.393Z,36.90
2023-04-12T20:42:52.355Z,38.10
2023-04-12T20:45:21.972Z,32.90
2023-04-12T20:47:51.191Z,32.50
2023-04-12T20:50:23.186Z,30.50
2023-04-12T20:52:52.428Z,32.40
2023-04-12T20:55:22.855Z,32.30
2023-04-12T20:57:50.925Z,31.20
2023-04-12T21:00:23.892Z,34.40
2023-04-12T21:02:52.544Z,36.40
2023-04-12T21:05:21.082Z,33.40
2023-04-12T21:07:49.255Z,33.80
2023-04-12T21:10:18.258Z,32.90
2023-04-12T21:12:47.346Z,38.50
2023-04-12T21:15:21.911Z,40.40
2023-04-12T21:17:52.465Z,40.50
2023-04-12T21:20:21.930Z,41.00
2023-04-12T21:22:52.024Z,35.30
2023-04-12T21:25:21.426Z,40.00
2023-04-12T21:27:50.011Z,41.40
2023-04-12T21:30:18.313Z,43.10
2023-04-12T21:32:47.339Z,40.20
2023-04-12T21:35:16.584Z,43.40
2023-04-12T21:37:44.872Z,45.30
2023-04-12T21:40:13.860Z,43.90
2023-04-12T21:42:42.278Z,43.80
2023-04-12T21:45:13.746Z,46.10
2023-04-12T21:47:42.707Z,43.50
2023-04-12T21:50:11.829Z,46.20
2023-04-12T21:52:41.309Z,48.80
2023-04-12T21:55:09.760Z,49.30
2023-04-12T21:57:37.939Z,45.00
2023-04-12T22:00:10.235Z,43.60
2023-04-12T22:02:41.768Z,44.60
2023-04-12T22:05:10.493Z,44.40
2023-04-12T22:07:41.617Z,53.90
2023-04-12T22:10:12.241Z,50.00
2023-04-12T22:12:40.936Z,53.10
2023-04-12T22:15:12.059Z,56.90
2023-04-12T22:17:41.394Z,55.90
2023-04-12T22:20:10.661Z,45.40
2023-04-12T22:22:40.165Z,40.50
2023-04-12T22:25:15.196Z,47.50
2023-04-12T22:27:46.675Z,45.30
2023-04-12T22:30:16.099Z,47.80
2023-04-12T22:32:44.885Z,46.30
2023-04-12T22:35:13.332Z,43.30
2023-04-12T22:37:43.654Z,44.40
2023-04-12T22:40:13.896Z,47.00
2023-04-12T22:42:48.702Z,44.60
2023-04-12T22:45:17.715Z,42.60
2023-04-12T22:47:46.439Z,42.90
2023-04-12T22:50:15.265Z,44.10
2023-04-12T22:52:43.744Z,42.00
2023-04-12T22:55:13.165Z,44.30
2023-04-12T22:57:42.140Z,46.50
2023-04-12T23:00:17.069Z,50.00
2023-04-12T23:02:46.778Z,51.10
2023-04-12T23:05:16.586Z,56.60
2023-04-12T23:07:45.177Z,58.30
2023-04-12T23:10:13.404Z,54.80
2023-04-12T23:12:41.673Z,57.10
2023-04-12T23:15:10.560Z,54.30
2023-04-12T23:17:38.640Z,51.50
2023-04-12T23:20:14.979Z,52.70
2023-04-12T23:22:57.883Z,49.20
2023-04-12T23:25:42.091Z,51.20
2023-04-12T23:28:14.344Z,48.30
2023-04-12T23:30:50.443Z,45.50
2023-04-12T23:33:20.661Z,49.50
2023-04-12T23:35:58.662Z,43.80
2023-04-12T23:38:32.421Z,42.10
2023-04-12T23:41:04.444Z,44.30
2023-04-12T23:43:37.391Z,38.30
2023-04-12T23:46:06.874Z,38.70
2023-04-12T23:48:35.946Z,37.90
2023-04-12T23:51:04.739Z,34.40
2023-04-12T23:53:33.115Z,35.50
2023-04-12T23:56:02.006Z,36.30
2023-04-12T23:58:30.698Z,32.60
